Time;durP1;ratioP1;P1;durP2;ratioP2;P2;SDS_P1;SDS_P2;PMS_P1;PMS_P2;Temp;Humidity;BMP_temperature;BMP_pressure;BME280_temperature;BME280_humidity;BME280_pressure;Samples;Min_cycle;Max_cycle;Signal;HPM_P1;HPM_P2
2022/03/02 00:00:39;;;;;;;;;;;6.60;99.90;;;;;;4966860;28;20778;-78
2022/03/02 00:03:04;;;;;;;;;;;6.70;99.90;;;;;;4961726;28;19932;-79
2022/03/02 00:05:30;;;;;;;;;;;6.70;99.90;;;;;;4962722;28;20714;-79
2022/03/02 00:07:56;;;;;;;;;;;6.70;99.90;;;;;;4963457;28;19928;-79
2022/03/02 00:10:22;;;;;;;;;;;6.60;99.90;;;;;;4991960;28;20504;-79
2022/03/02 00:12:47;;;;;;;;;;;6.50;99.90;;;;;;4960663;28;20396;-79
2022/03/02 00:15:13;;;;;;;;;;;6.60;99.90;;;;;;4964506;28;19959;-79
2022/03/02 00:17:39;;;;;;;;;;;6.60;99.90;;;;;;4983012;28;20058;-79
2022/03/02 00:20:05;;;;;;;;;;;6.60;99.90;;;;;;4981036;28;19928;-79
2022/03/02 00:22:31;;;;;;;;;;;6.60;99.90;;;;;;4965910;28;20538;-79
2022/03/02 00:24:58;;;;;;;;;;;6.60;99.90;;;;;;4980974;28;19928;-79
2022/03/02 00:27:24;;;;;;;;;;;6.50;99.90;;;;;;4971700;28;19928;-79
2022/03/02 00:29:50;;;;;;;;;;;6.50;99.90;;;;;;4961421;28;20126;-79
2022/03/02 00:32:16;;;;;;;;;;;6.50;99.90;;;;;;4959970;28;20778;-79
2022/03/02 00:34:42;;;;;;;;;;;6.50;99.90;;;;;;4945466;28;19928;-79
2022/03/02 00:37:08;;;;;;;;;;;6.50;99.90;;;;;;4945481;28;19929;-79
2022/03/02 00:39:34;;;;;;;;;;;6.40;99.90;;;;;;4960656;28;20069;-79
2022/03/02 00:41:59;;;;;;;;;;;6.40;99.90;;;;;;4957288;28;19990;-79
2022/03/02 00:44:25;;;;;;;;;;;6.30;99.90;;;;;;4960649;28;20645;-79
2022/03/02 00:46:51;;;;;;;;;;;6.30;99.90;;;;;;4959080;28;20421;-79
2022/03/02 00:49:16;;;;;;;;;;;6.30;99.90;;;;;;4960162;28;20021;-79
2022/03/02 00:51:42;;;;;;;;;;;6.30;99.90;;;;;;4960918;28;19929;-79
2022/03/02 00:54:09;;;;;;;;;;;6.30;99.90;;;;;;4978393;28;20660;-79
2022/03/02 00:56:34;;;;;;;;;;;6.30;99.90;;;;;;4961619;28;20715;-79
2022/03/02 00:59:00;;;;;;;;;;;6.30;99.90;;;;;;4963472;28;19954;-79
2022/03/02 01:01:25;;;;;;;;;;;6.30;99.90;;;;;;4982965;28;19929;-79
2022/03/02 01:03:51;;;;;;;;;;;6.40;99.90;;;;;;4979261;28;20165;-79
2022/03/02 01:06:17;;;;;;;;;;;6.40;99.90;;;;;;4969099;28;20378;-79
2022/03/02 01:08:43;;;;;;;;;;;6.40;99.90;;;;;;4980939;28;20553;-79
2022/03/02 01:11:09;;;;;;;;;;;6.40;99.90;;;;;;4959760;28;19939;-79
2022/03/02 01:13:35;;;;;;;;;;;6.40;99.90;;;;;;4976864;28;19932;-79
2022/03/02 01:16:01;;;;;;;;;;;6.30;99.90;;;;;;4976626;28;19943;-79
2022/03/02 01:18:27;;;;;;;;;;;6.20;99.90;;;;;;4942210;28;19963;-79
2022/03/02 01:20:53;;;;;;;;;;;6.20;99.90;;;;;;4957652;28;20376;-79
2022/03/02 01:23:18;;;;;;;;;;;6.20;99.90;;;;;;4960056;28;19933;-79
2022/03/02 01:25:44;;;;;;;;;;;6.20;99.90;;;;;;4939968;28;19928;-79
2022/03/02 01:28:10;;;;;;;;;;;6.20;99.90;;;;;;4961114;28;19989;-79
2022/03/02 01:30:36;;;;;;;;;;;6.20;99.90;;;;;;4959994;28;20002;-79
2022/03/02 01:33:01;;;;;;;;;;;6.20;99.90;;;;;;4977838;28;20324;-79
2022/03/02 01:45:21;;;;;;;;;;;6.10;99.90;;;;;;4942325;28;19933;-79
2022/03/02 01:47:47;;;;;;;;;;;6.10;99.90;;;;;;4945989;28;19939;-79
2022/03/02 01:50:13;;;;;;;;;;;6.00;99.90;;;;;;4935847;28;20338;-79
2022/03/02 01:52:39;;;;;;;;;;;6.00;99.90;;;;;;4943311;28;19929;-79
2022/03/02 01:55:05;;;;;;;;;;;6.00;99.90;;;;;;4941962;28;19928;-79
2022/03/02 01:57:31;;;;;;;;;;;6.00;99.90;;;;;;4960725;28;19972;-79
2022/03/02 01:59:57;;;;;;;;;;;6.00;99.90;;;;;;4954739;28;20289;-79
2022/03/02 02:02:22;;;;;;;;;;;5.90;99.90;;;;;;4929805;28;20641;-79
2022/03/02 02:04:48;;;;;;;;;;;5.90;99.90;;;;;;4960742;28;20333;-79
2022/03/02 02:07:14;;;;;;;;;;;5.80;99.90;;;;;;4960824;28;20531;-79
2022/03/02 02:09:39;;;;;;;;;;;5.80;99.90;;;;;;4944031;28;20732;-79
2022/03/02 02:12:05;;;;;;;;;;;5.70;99.90;;;;;;4960586;28;20008;-79
2022/03/02 02:14:31;;;;;;;;;;;5.80;99.90;;;;;;4943665;28;19956;-79
2022/03/02 02:16:56;;;;;;;;;;;5.80;99.90;;;;;;4943119;28;20372;-79
2022/03/02 02:19:22;;;;;;;;;;;5.70;99.90;;;;;;4959835;28;19932;-79
2022/03/02 02:21:48;;;;;;;;;;;5.70;99.90;;;;;;4951679;28;20392;-79
2022/03/02 02:24:14;;;;;;;;;;;5.70;99.90;;;;;;4923586;28;20103;-79
2022/03/02 02:26:40;;;;;;;;;;;5.70;99.90;;;;;;4940539;28;20363;-79
2022/03/02 02:29:06;;;;;;;;;;;5.80;99.90;;;;;;4941489;28;20412;-79
2022/03/02 02:31:32;;;;;;;;;;;5.80;99.90;;;;;;4939781;28;19932;-79
2022/03/02 02:33:57;;;;;;;;;;;5.80;99.90;;;;;;4939757;28;19933;-79
2022/03/02 02:36:23;;;;;;;;;;;5.90;99.90;;;;;;4956634;28;20584;-79
2022/03/02 02:38:49;;;;;;;;;;;5.90;99.90;;;;;;4924032;28;19937;-79
2022/03/02 02:41:18;;;;;;;;;;;5.90;99.90;;;;;;4941988;28;20019;-79
2022/03/02 02:43:44;;;;;;;;;;;5.90;99.90;;;;;;4968413;28;20366;-79
2022/03/02 02:46:11;;;;;;;;;;;5.90;99.90;;;;;;4942929;28;19929;-79
2022/03/02 02:48:37;;;;;;;;;;;5.80;99.90;;;;;;4954508;28;20407;-79
2022/03/02 02:51:03;;;;;;;;;;;5.90;99.90;;;;;;4961762;28;20439;-79
2022/03/02 02:53:29;;;;;;;;;;;5.70;99.90;;;;;;4979390;28;20099;-79
2022/03/02 02:55:55;;;;;;;;;;;5.70;99.90;;;;;;4974822;28;20447;-79
2022/03/02 02:58:21;;;;;;;;;;;5.60;99.90;;;;;;4953570;28;20672;-79
2022/03/02 03:00:48;;;;;;;;;;;5.60;99.90;;;;;;4961813;28;20452;-79
2022/03/02 03:03:13;;;;;;;;;;;5.60;99.90;;;;;;4969610;28;19929;-79
2022/03/02 03:05:39;;;;;;;;;;;5.60;99.90;;;;;;4961915;28;19936;-79
2022/03/02 03:08:06;;;;;;;;;;;5.70;99.90;;;;;;4961988;28;19935;-79
2022/03/02 03:10:32;;;;;;;;;;;5.60;99.90;;;;;;4963224;28;19932;-79
2022/03/02 03:12:59;;;;;;;;;;;5.60;99.90;;;;;;4954894;28;20381;-79
2022/03/02 03:15:24;;;;;;;;;;;5.60;99.90;;;;;;4976226;28;19995;-79
2022/03/02 03:17:51;;;;;;;;;;;5.60;99.90;;;;;;4977389;28;20439;-79
2022/03/02 03:20:18;;;;;;;;;;;5.60;99.90;;;;;;4963575;28;19941;-79
2022/03/02 03:22:43;;;;;;;;;;;5.60;99.90;;;;;;4958658;28;19928;-79
2022/03/02 03:25:10;;;;;;;;;;;5.60;99.90;;;;;;4946246;28;19990;-79
2022/03/02 03:27:38;;;;;;;;;;;5.60;99.90;;;;;;4987846;28;20052;-79
2022/03/02 03:30:05;;;;;;;;;;;5.60;99.90;;;;;;4965305;28;20665;-79
2022/03/02 03:32:31;;;;;;;;;;;5.50;99.90;;;;;;4984421;28;20696;-79
2022/03/02 03:34:57;;;;;;;;;;;5.50;99.90;;;;;;4959204;28;19971;-79
2022/03/02 03:37:23;;;;;;;;;;;5.50;99.90;;;;;;4978812;28;20005;-79
2022/03/02 03:39:49;;;;;;;;;;;5.50;99.90;;;;;;4963049;28;19932;-79
2022/03/02 03:42:15;;;;;;;;;;;5.50;99.90;;;;;;4965884;28;20379;-79
2022/03/02 03:44:40;;;;;;;;;;;5.50;99.90;;;;;;4983463;28;19935;-79
2022/03/02 03:47:06;;;;;;;;;;;5.50;99.90;;;;;;4961592;28;19947;-79
2022/03/02 03:49:32;;;;;;;;;;;5.50;99.90;;;;;;4966615;28;19932;-79
2022/03/02 03:51:57;;;;;;;;;;;5.50;99.90;;;;;;4962918;28;19928;-79
2022/03/02 03:54:23;;;;;;;;;;;5.40;99.90;;;;;;4959707;28;19989;-79
2022/03/02 03:56:49;;;;;;;;;;;5.40;99.90;;;;;;4958567;28;19943;-79
2022/03/02 03:59:15;;;;;;;;;;;5.40;99.90;;;;;;4959269;28;19924;-79
2022/03/02 04:01:40;;;;;;;;;;;5.40;99.90;;;;;;4959997;28;19933;-79
2022/03/02 04:04:06;;;;;;;;;;;5.40;99.90;;;;;;4960645;28;20346;-79
2022/03/02 04:06:32;;;;;;;;;;;5.40;99.90;;;;;;4948189;28;19932;-79
2022/03/02 04:08:57;;;;;;;;;;;5.40;99.90;;;;;;4960003;28;19933;-79
2022/03/02 04:11:23;;;;;;;;;;;5.40;99.90;;;;;;4979909;28;20663;-79
2022/03/02 04:13:49;;;;;;;;;;;5.40;99.90;;;;;;4984649;28;20668;-79
2022/03/02 04:16:14;;;;;;;;;;;5.40;99.90;;;;;;4966673;28;19928;-79
2022/03/02 04:18:40;;;;;;;;;;;5.40;99.90;;;;;;4963862;28;19935;-79
2022/03/02 04:21:06;;;;;;;;;;;5.40;99.90;;;;;;4963117;28;20463;-79
2022/03/02 04:23:31;;;;;;;;;;;5.30;99.90;;;;;;4966067;28;20822;-79
2022/03/02 04:25:57;;;;;;;;;;;5.30;99.90;;;;;;4963174;28;20442;-79
2022/03/02 04:28:23;;;;;;;;;;;5.30;99.90;;;;;;4980243;28;19936;-79
2022/03/02 04:30:49;;;;;;;;;;;5.40;99.90;;;;;;4968649;28;20091;-79
2022/03/02 04:33:14;;;;;;;;;;;5.30;99.90;;;;;;4961364;28;20016;-79
2022/03/02 04:35:40;;;;;;;;;;;5.40;99.90;;;;;;4964496;28;19928;-79
2022/03/02 04:38:06;;;;;;;;;;;5.30;99.90;;;;;;4982513;28;20759;-79
2022/03/02 04:40:32;;;;;;;;;;;5.30;99.90;;;;;;4961651;28;19928;-79
2022/03/02 04:42:58;;;;;;;;;;;5.20;99.90;;;;;;4961531;28;20324;-79
2022/03/02 04:45:27;;;;;;;;;;;5.30;99.90;;;;;;4962292;28;20298;-79
2022/03/02 04:47:53;;;;;;;;;;;5.30;99.90;;;;;;4977788;28;19928;-79
2022/03/02 04:50:19;;;;;;;;;;;5.30;99.90;;;;;;4966885;28;20421;-79
2022/03/02 04:52:46;;;;;;;;;;;5.20;99.90;;;;;;4977371;28;19929;-79
2022/03/02 04:55:12;;;;;;;;;;;5.20;99.90;;;;;;4973739;28;19924;-79
2022/03/02 04:57:40;;;;;;;;;;;5.20;99.90;;;;;;4982269;28;19950;-79
2022/03/02 05:00:08;;;;;;;;;;;5.20;99.90;;;;;;4961704;28;19960;-79
2022/03/02 05:02:33;;;;;;;;;;;5.20;99.90;;;;;;4977286;28;19932;-79
2022/03/02 05:04:59;;;;;;;;;;;5.20;99.90;;;;;;4974157;28;19939;-79
2022/03/02 05:07:25;;;;;;;;;;;5.20;99.90;;;;;;4960492;28;20753;-79
2022/03/02 05:09:51;;;;;;;;;;;5.20;99.90;;;;;;4980293;28;19935;-79
2022/03/02 05:12:16;;;;;;;;;;;5.20;99.90;;;;;;4978222;28;20373;-79
2022/03/02 05:14:42;;;;;;;;;;;5.20;99.90;;;;;;4971708;28;20393;-79
2022/03/02 05:17:08;;;;;;;;;;;5.10;99.90;;;;;;4974818;28;19928;-79
2022/03/02 05:19:33;;;;;;;;;;;5.10;99.90;;;;;;4957316;28;20329;-79
2022/03/02 05:21:59;;;;;;;;;;;5.10;99.90;;;;;;4976757;28;20869;-79
2022/03/02 05:24:25;;;;;;;;;;;5.10;99.90;;;;;;4959645;28;20182;-79
2022/03/02 05:26:50;;;;;;;;;;;5.10;99.90;;;;;;4979923;28;19928;-79
2022/03/02 05:29:16;;;;;;;;;;;5.00;99.90;;;;;;4957303;28;20954;-80
2022/03/02 05:31:42;;;;;;;;;;;5.10;99.90;;;;;;4962562;28;19928;-79
2022/03/02 05:34:07;;;;;;;;;;;5.00;99.90;;;;;;4936641;28;19924;-79
2022/03/02 05:36:33;;;;;;;;;;;5.00;99.90;;;;;;4976233;28;19934;-79
2022/03/02 05:38:59;;;;;;;;;;;5.00;99.90;;;;;;4976675;28;19929;-79
2022/03/02 05:41:24;;;;;;;;;;;5.00;99.90;;;;;;4959848;28;19937;-79
2022/03/02 05:43:53;;;;;;;;;;;5.00;99.90;;;;;;4974136;28;20206;-79
2022/03/02 05:46:19;;;;;;;;;;;4.90;99.90;;;;;;4979119;28;19975;-79
2022/03/02 05:48:44;;;;;;;;;;;4.90;99.90;;;;;;4964767;28;20253;-80
2022/03/02 05:51:10;;;;;;;;;;;4.90;99.90;;;;;;4978345;28;20517;-79
2022/03/02 05:53:35;;;;;;;;;;;4.90;99.90;;;;;;4983901;28;19932;-79
2022/03/02 05:56:01;;;;;;;;;;;4.90;99.90;;;;;;4983096;28;19938;-79
2022/03/02 05:58:27;;;;;;;;;;;4.90;99.90;;;;;;4961818;28;20010;-79
2022/03/02 06:00:53;;;;;;;;;;;4.90;99.90;;;;;;4956865;28;19936;-80
2022/03/02 06:03:20;;;;;;;;;;;4.90;99.90;;;;;;4956995;28;19928;-79
2022/03/02 06:05:46;;;;;;;;;;;4.90;99.90;;;;;;4954666;28;20321;-79
2022/03/02 06:08:11;;;;;;;;;;;4.90;99.90;;;;;;4942927;28;20332;-80
2022/03/02 06:10:37;;;;;;;;;;;4.90;99.90;;;;;;4975081;28;20414;-79
2022/03/02 06:13:03;;;;;;;;;;;4.90;99.90;;;;;;4972930;28;19924;-79
2022/03/02 06:15:30;;;;;;;;;;;4.90;99.90;;;;;;4971387;28;20377;-79
2022/03/02 06:17:56;;;;;;;;;;;4.90;99.90;;;;;;4974342;28;20393;-80
2022/03/02 06:20:22;;;;;;;;;;;4.90;99.90;;;;;;4954810;28;20992;-80
2022/03/02 06:22:48;;;;;;;;;;;4.90;99.90;;;;;;4954487;28;19925;-80
2022/03/02 06:25:14;;;;;;;;;;;5.00;99.90;;;;;;4934806;28;19936;-79
2022/03/02 06:27:39;;;;;;;;;;;4.90;99.90;;;;;;4955949;28;20615;-80
2022/03/02 06:30:06;;;;;;;;;;;5.00;99.90;;;;;;4935642;28;19928;-79
2022/03/02 06:32:33;;;;;;;;;;;5.00;99.90;;;;;;4951076;28;20579;-80
2022/03/02 06:34:59;;;;;;;;;;;5.00;99.90;;;;;;4957390;28;20381;-80
2022/03/02 06:37:26;;;;;;;;;;;5.00;99.90;;;;;;4970786;28;19928;-79
2022/03/02 06:39:52;;;;;;;;;;;5.00;99.90;;;;;;4939707;28;20688;-79
2022/03/02 06:42:21;;;;;;;;;;;5.00;99.90;;;;;;4959346;28;20088;-79
2022/03/02 06:44:55;;;;;;;;;;;5.10;99.90;;;;;;4976997;28;19928;-80
2022/03/02 06:47:29;;;;;;;;;;;5.10;99.90;;;;;;4959001;28;20348;-80
2022/03/02 06:49:57;;;;;;;;;;;5.10;99.90;;;;;;4958831;28;20699;-79
2022/03/02 06:52:25;;;;;;;;;;;5.20;99.90;;;;;;4965659;28;19932;-79
2022/03/02 06:54:50;;;;;;;;;;;5.10;99.90;;;;;;4960867;28;20339;-80
2022/03/02 06:57:18;;;;;;;;;;;5.20;99.90;;;;;;4963729;28;20507;-81
2022/03/02 06:59:49;;;;;;;;;;;5.20;99.90;;;;;;4930808;28;20529;-79
2022/03/02 07:02:20;;;;;;;;;;;5.30;99.90;;;;;;4978127;28;19935;-80
2022/03/02 07:04:46;;;;;;;;;;;5.20;99.90;;;;;;4962456;28;20277;-80
2022/03/02 07:07:12;;;;;;;;;;;5.30;99.90;;;;;;4963820;28;20310;-80
2022/03/02 07:09:38;;;;;;;;;;;5.30;99.90;;;;;;4961047;28;20357;-80
2022/03/02 07:12:05;;;;;;;;;;;5.30;99.90;;;;;;4944322;28;20345;-79
2022/03/02 07:14:31;;;;;;;;;;;5.30;99.90;;;;;;4950487;28;19929;-79
2022/03/02 07:16:58;;;;;;;;;;;5.30;99.90;;;;;;4961958;28;20364;-81
2022/03/02 07:19:24;;;;;;;;;;;5.30;99.90;;;;;;4961252;28;20427;-80
2022/03/02 07:21:50;;;;;;;;;;;5.30;99.90;;;;;;4961913;28;19971;-81
2022/03/02 07:24:17;;;;;;;;;;;5.40;99.90;;;;;;4962158;28;20281;-79
2022/03/02 07:26:44;;;;;;;;;;;5.40;99.90;;;;;;4979869;28;19998;-79
2022/03/02 07:29:11;;;;;;;;;;;5.50;99.90;;;;;;4977217;28;20001;-80
2022/03/02 07:31:37;;;;;;;;;;;5.40;99.90;;;;;;4940400;28;20027;-81
2022/03/02 07:34:05;;;;;;;;;;;5.50;99.90;;;;;;4979026;28;19929;-80
2022/03/02 07:36:32;;;;;;;;;;;5.60;99.90;;;;;;4984031;28;19932;-80
2022/03/02 07:38:58;;;;;;;;;;;5.60;99.90;;;;;;4975362;28;20487;-81
2022/03/02 07:41:24;;;;;;;;;;;5.60;99.90;;;;;;4958063;28;20408;-81
2022/03/02 07:43:50;;;;;;;;;;;5.60;99.90;;;;;;4978043;28;19983;-80
2022/03/02 07:46:16;;;;;;;;;;;5.70;99.90;;;;;;4961284;28;20043;-80
2022/03/02 07:48:42;;;;;;;;;;;5.80;99.90;;;;;;4976964;28;19954;-80
2022/03/02 07:51:08;;;;;;;;;;;5.80;99.90;;;;;;4977680;28;20627;-80
2022/03/02 07:53:40;;;;;;;;;;;5.90;99.90;;;;;;4968796;28;19924;-79
2022/03/02 07:56:08;;;;;;;;;;;5.90;99.90;;;;;;4975166;28;19944;-80
2022/03/02 07:58:36;;;;;;;;;;;6.10;99.90;;;;;;4958953;28;20409;-79
2022/03/02 08:01:03;;;;;;;;;;;6.40;99.90;;;;;;4977762;28;20332;-80
2022/03/02 08:03:30;;;;;;;;;;;6.80;99.90;;;;;;4977371;28;20199;-80
2022/03/02 08:06:02;;;;;;;;;;;7.10;99.90;;;;;;4973799;28;20408;-79
2022/03/02 08:08:28;;;;;;;;;;;7.20;99.90;;;;;;4972844;28;20244;-80
2022/03/02 08:10:53;;;;;;;;;;;7.40;99.90;;;;;;4961359;28;20027;-80
2022/03/02 08:13:19;;;;;;;;;;;7.70;99.90;;;;;;4942298;28;19928;-80
2022/03/02 08:15:45;;;;;;;;;;;7.60;99.90;;;;;;4963157;28;20294;-80
2022/03/02 08:18:10;;;;;;;;;;;7.60;99.90;;;;;;4978631;28;19929;-80
2022/03/02 08:20:39;;;;;;;;;;;8.00;99.90;;;;;;4953306;28;19929;-79
2022/03/02 08:23:06;;;;;;;;;;;7.90;99.90;;;;;;4974949;28;20184;-80
2022/03/02 08:25:31;;;;;;;;;;;7.90;99.90;;;;;;4956833;28;19928;-80
2022/03/02 08:27:57;;;;;;;;;;;7.40;99.90;;;;;;4980286;28;20282;-80
2022/03/02 08:30:23;;;;;;;;;;;7.20;99.90;;;;;;4959731;28;19986;-80
2022/03/02 08:32:50;;;;;;;;;;;7.60;99.90;;;;;;4974848;28;20454;-79
2022/03/02 08:35:16;;;;;;;;;;;7.40;99.90;;;;;;4974544;28;19928;-80
2022/03/02 08:37:42;;;;;;;;;;;7.70;99.90;;;;;;4962840;28;20347;-80
2022/03/02 08:40:09;;;;;;;;;;;7.40;99.90;;;;;;4975915;28;20397;-80
2022/03/02 08:42:35;;;;;;;;;;;7.60;99.90;;;;;;4953437;28;20039;-80
2022/03/02 08:45:01;;;;;;;;;;;7.30;99.90;;;;;;4956868;28;19933;-79
2022/03/02 08:47:27;;;;;;;;;;;7.60;99.90;;;;;;4945689;28;20456;-81
2022/03/02 08:49:56;;;;;;;;;;;7.90;99.90;;;;;;4980285;28;19928;-79
2022/03/02 08:52:29;;;;;;;;;;;7.80;99.90;;;;;;4998458;28;19936;-79
2022/03/02 08:54:56;;;;;;;;;;;7.80;99.90;;;;;;5003363;28;19940;-79
2022/03/02 08:57:22;;;;;;;;;;;7.50;99.90;;;;;;4953453;28;20395;-79
2022/03/02 08:59:50;;;;;;;;;;;7.60;99.90;;;;;;4986990;28;19924;-79
2022/03/02 09:02:18;;;;;;;;;;;7.70;99.90;;;;;;4982985;28;19959;-79
2022/03/02 09:04:45;;;;;;;;;;;8.00;99.90;;;;;;4972722;28;19928;-79
2022/03/02 09:07:10;;;;;;;;;;;8.00;99.90;;;;;;4955981;28;20669;-79
2022/03/02 09:09:36;;;;;;;;;;;7.60;99.90;;;;;;4963518;28;19925;-79
2022/03/02 09:12:03;;;;;;;;;;;8.10;99.90;;;;;;4957700;28;19963;-79
2022/03/02 09:14:28;;;;;;;;;;;8.20;99.90;;;;;;4961427;28;20394;-80
2022/03/02 09:16:54;;;;;;;;;;;8.10;99.90;;;;;;4959229;28;20025;-79
2022/03/02 09:19:19;;;;;;;;;;;8.00;97.70;;;;;;4959845;28;19928;-80
2022/03/02 09:21:45;;;;;;;;;;;8.20;99.90;;;;;;4979030;28;19986;-80
2022/03/02 09:24:12;;;;;;;;;;;8.60;99.90;;;;;;4961782;28;20336;-79
2022/03/02 09:26:38;;;;;;;;;;;8.10;99.50;;;;;;4977449;28;19974;-81
2022/03/02 09:29:05;;;;;;;;;;;8.40;99.90;;;;;;4959135;28;20468;-81
2022/03/02 09:31:32;;;;;;;;;;;8.10;96.80;;;;;;4977595;28;20729;-79
2022/03/02 09:33:58;;;;;;;;;;;8.40;93.70;;;;;;4957773;28;19928;-79
2022/03/02 09:36:25;;;;;;;;;;;8.00;82.50;;;;;;4955455;28;19975;-79
2022/03/02 09:38:51;;;;;;;;;;;8.70;99.90;;;;;;4977243;28;19982;-80
2022/03/02 09:41:33;;;;;;;;;;;8.50;95.80;;;;;;4956236;28;20463;-80
2022/03/02 09:43:59;;;;;;;;;;;8.30;93.80;;;;;;4957164;28;20278;-80
2022/03/02 09:46:35;;;;;;;;;;;8.20;88.00;;;;;;4957779;28;20749;-79
2022/03/02 09:49:09;;;;;;;;;;;8.60;99.90;;;;;;4958900;28;19928;-79
2022/03/02 09:51:35;;;;;;;;;;;8.70;99.90;;;;;;4957399;28;20374;-79
2022/03/02 09:54:02;;;;;;;;;;;8.70;91.00;;;;;;4962733;28;20767;-80
2022/03/02 09:56:29;;;;;;;;;;;8.70;90.10;;;;;;4956034;28;19928;-80
2022/03/02 09:58:55;;;;;;;;;;;8.80;93.10;;;;;;4974634;28;20264;-80
2022/03/02 10:01:22;;;;;;;;;;;8.60;97.00;;;;;;4958141;28;20497;-80
2022/03/02 10:03:48;;;;;;;;;;;8.60;93.40;;;;;;4954587;28;19936;-79
2022/03/02 10:06:16;;;;;;;;;;;9.00;99.90;;;;;;4971413;28;19928;-80
2022/03/02 10:08:46;;;;;;;;;;;8.90;96.10;;;;;;4971819;28;19967;-80
2022/03/02 10:11:14;;;;;;;;;;;9.60;99.90;;;;;;4972261;28;20698;-80
2022/03/02 10:13:39;;;;;;;;;;;10.00;99.90;;;;;;4961464;28;20338;-80
2022/03/02 10:16:05;;;;;;;;;;;10.10;99.90;;;;;;4977352;28;19929;-81
2022/03/02 10:18:35;;;;;;;;;;;9.50;98.50;;;;;;4956833;28;19990;-80
2022/03/02 10:21:02;;;;;;;;;;;9.30;90.60;;;;;;4938318;28;20488;-80
2022/03/02 10:23:41;;;;;;;;;;;9.20;96.50;;;;;;4966318;28;19939;-79
2022/03/02 10:26:10;;;;;;;;;;;9.60;91.40;;;;;;4975849;28;20125;-79
2022/03/02 10:28:56;;;;;;;;;;;9.60;98.30;;;;;;4980361;28;19941;-79
2022/03/02 10:31:37;;;;;;;;;;;9.70;86.10;;;;;;4957470;28;20058;-79
2022/03/02 10:34:22;;;;;;;;;;;9.90;91.20;;;;;;4961562;28;19951;-80
2022/03/02 10:36:50;;;;;;;;;;;9.40;82.40;;;;;;4978334;28;20453;-80
2022/03/02 10:39:32;;;;;;;;;;;9.70;88.80;;;;;;4974696;28;20366;-80
2022/03/02 10:41:59;;;;;;;;;;;9.80;92.00;;;;;;4977555;28;20019;-79
2022/03/02 10:44:34;;;;;;;;;;;9.60;83.60;;;;;;4939817;28;19978;-79
2022/03/02 10:47:03;;;;;;;;;;;9.30;82.10;;;;;;4959129;28;19932;-79
2022/03/02 10:49:31;;;;;;;;;;;9.70;91.00;;;;;;4973893;28;20704;-79
2022/03/02 10:51:58;;;;;;;;;;;9.90;79.30;;;;;;4952496;28;19928;-79
2022/03/02 10:54:24;;;;;;;;;;;10.00;77.10;;;;;;4974955;28;19928;-80
2022/03/02 10:56:54;;;;;;;;;;;9.70;74.30;;;;;;4957356;28;19929;-79
2022/03/02 10:59:24;;;;;;;;;;;10.10;79.30;;;;;;4959303;28;19928;-81
2022/03/02 11:01:51;;;;;;;;;;;9.60;73.50;;;;;;4976316;28;19980;-80
2022/03/02 11:04:18;;;;;;;;;;;10.00;78.60;;;;;;4972173;28;19932;-79
2022/03/02 11:06:44;;;;;;;;;;;10.00;72.80;;;;;;4982213;28;19928;-79
2022/03/02 11:09:10;;;;;;;;;;;9.90;69.10;;;;;;4959715;28;20125;-79
2022/03/02 11:11:38;;;;;;;;;;;10.00;70.40;;;;;;4973864;28;19928;-79
2022/03/02 11:14:04;;;;;;;;;;;9.80;68.30;;;;;;4980016;28;19929;-79
2022/03/02 11:16:30;;;;;;;;;;;10.20;73.20;;;;;;4965184;28;19928;-79
2022/03/02 11:19:08;;;;;;;;;;;10.30;68.40;;;;;;4965964;28;19928;-78
2022/03/02 11:21:36;;;;;;;;;;;10.40;70.50;;;;;;4959763;28;19929;-80
2022/03/02 11:24:04;;;;;;;;;;;10.20;68.10;;;;;;4964587;28;19935;-79
2022/03/02 11:26:31;;;;;;;;;;;10.20;66.90;;;;;;4975278;28;19936;-79
2022/03/02 11:28:58;;;;;;;;;;;10.60;69.40;;;;;;4985470;28;20415;-79
2022/03/02 11:31:31;;;;;;;;;;;10.40;67.50;;;;;;4983759;28;19964;-79
2022/03/02 11:34:13;;;;;;;;;;;10.60;66.60;;;;;;4963279;28;20328;-80
2022/03/02 11:36:40;;;;;;;;;;;10.40;66.00;;;;;;4984296;28;20324;-79
2022/03/02 11:39:06;;;;;;;;;;;10.90;69.50;;;;;;4946725;28;20390;-79
2022/03/02 11:41:36;;;;;;;;;;;10.80;64.00;;;;;;4963420;28;20069;-79
2022/03/02 11:44:03;;;;;;;;;;;10.70;64.90;;;;;;4964219;28;20411;-79
2022/03/02 11:46:28;;;;;;;;;;;10.60;64.40;;;;;;4946078;28;19968;-79
2022/03/02 11:48:55;;;;;;;;;;;10.50;63.90;;;;;;4965941;28;20503;-80
2022/03/02 11:51:23;;;;;;;;;;;10.60;65.10;;;;;;4965615;28;19935;-79
2022/03/02 11:53:52;;;;;;;;;;;10.90;70.20;;;;;;4957842;28;19929;-79
2022/03/02 11:56:19;;;;;;;;;;;10.80;67.90;;;;;;4962370;28;20659;-79
2022/03/02 11:58:55;;;;;;;;;;;10.60;61.50;;;;;;4964270;28;20411;-79
2022/03/02 12:01:21;;;;;;;;;;;10.50;61.20;;;;;;4962614;28;20686;-79
2022/03/02 12:03:58;;;;;;;;;;;10.70;64.90;;;;;;4962862;28;19928;-79
2022/03/02 12:06:24;;;;;;;;;;;10.70;64.90;;;;;;4943029;28;20302;-79
2022/03/02 12:08:54;;;;;;;;;;;10.90;62.80;;;;;;4958909;28;20359;-79
2022/03/02 12:11:27;;;;;;;;;;;11.00;66.10;;;;;;4959724;28;19933;-80
2022/03/02 12:14:00;;;;;;;;;;;11.00;67.50;;;;;;4963806;28;19938;-80
2022/03/02 12:16:36;;;;;;;;;;;10.80;62.10;;;;;;4957174;28;20424;-79
2022/03/02 12:19:01;;;;;;;;;;;10.80;62.10;;;;;;4978509;28;20451;-79
2022/03/02 12:21:27;;;;;;;;;;;10.80;63.40;;;;;;4960690;28;20487;-79
2022/03/02 12:23:53;;;;;;;;;;;11.20;62.90;;;;;;4952578;28;20340;-78
2022/03/02 12:26:19;;;;;;;;;;;11.40;68.00;;;;;;4965202;28;19933;-79
2022/03/02 12:28:55;;;;;;;;;;;11.30;61.60;;;;;;4975225;28;19939;-80
2022/03/02 12:31:31;;;;;;;;;;;11.40;60.60;;;;;;4980802;28;20675;-80
2022/03/02 12:34:00;;;;;;;;;;;11.30;63.30;;;;;;5005598;28;20406;-79
2022/03/02 12:36:26;;;;;;;;;;;11.00;61.60;;;;;;4977661;28;19979;-79
2022/03/02 12:38:52;;;;;;;;;;;11.10;60.00;;;;;;4959185;28;19979;-80
2022/03/02 12:41:18;;;;;;;;;;;10.80;60.30;;;;;;4980773;28;19928;-79
2022/03/02 12:43:44;;;;;;;;;;;11.10;61.10;;;;;;4977037;28;19958;-79
2022/03/02 12:46:10;;;;;;;;;;;11.50;65.70;;;;;;4958269;28;19928;-79
2022/03/02 12:48:36;;;;;;;;;;;11.60;67.10;;;;;;4961813;28;20110;-80
2022/03/02 12:51:03;;;;;;;;;;;11.40;65.80;;;;;;4976632;28;20295;-80
2022/03/02 12:53:30;;;;;;;;;;;11.30;59.20;;;;;;4980701;28;19971;-79
2022/03/02 12:55:55;;;;;;;;;;;11.00;58.50;;;;;;4956463;28;20148;-80
2022/03/02 12:58:23;;;;;;;;;;;11.10;58.50;;;;;;4962140;28;20481;-80
2022/03/02 13:00:49;;;;;;;;;;;11.20;62.60;;;;;;4978681;28;20362;-79
2022/03/02 13:03:22;;;;;;;;;;;11.40;63.50;;;;;;4977935;28;19935;-80
2022/03/02 13:05:50;;;;;;;;;;;11.60;66.40;;;;;;4959534;28;19935;-80
2022/03/02 13:08:19;;;;;;;;;;;11.60;61.90;;;;;;4942425;28;21025;-80
2022/03/02 13:10:46;;;;;;;;;;;11.60;62.60;;;;;;4958180;28;19929;-81
2022/03/02 13:13:12;;;;;;;;;;;12.00;64.70;;;;;;4958052;28;19935;-79
2022/03/02 13:15:41;;;;;;;;;;;11.70;60.00;;;;;;4973020;28;20247;-80
2022/03/02 13:18:06;;;;;;;;;;;11.60;59.80;;;;;;4977347;28;20111;-80
2022/03/02 13:20:33;;;;;;;;;;;11.20;58.90;;;;;;4960083;28;19941;-79
2022/03/02 13:23:16;;;;;;;;;;;11.20;59.90;;;;;;4958790;28;19928;-80
2022/03/02 13:25:58;;;;;;;;;;;11.20;63.30;;;;;;4960147;28;20531;-79
2022/03/02 13:28:25;;;;;;;;;;;11.80;63.10;;;;;;4959789;28;20362;-79
2022/03/02 13:31:20;;;;;;;;;;;11.60;56.90;;;;;;4979128;28;20343;-79
2022/03/02 13:33:51;;;;;;;;;;;11.80;59.00;;;;;;4960923;28;19940;-78
2022/03/02 13:36:40;;;;;;;;;;;11.40;56.80;;;;;;4958999;28;20217;-79
2022/03/02 13:39:20;;;;;;;;;;;11.60;61.30;;;;;;4948654;28;20360;-80
2022/03/02 13:41:47;;;;;;;;;;;11.60;58.90;;;;;;4940607;28;20558;-79
2022/03/02 13:44:19;;;;;;;;;;;11.40;55.00;;;;;;4939102;28;20511;-80
2022/03/02 13:46:45;;;;;;;;;;;11.60;58.00;;;;;;4950944;28;19986;-79
2022/03/02 13:49:10;;;;;;;;;;;11.30;56.90;;;;;;4954069;28;19929;-79
2022/03/02 13:51:49;;;;;;;;;;;11.50;57.20;;;;;;4957480;28;19975;-78
2022/03/02 13:54:24;;;;;;;;;;;11.40;55.90;;;;;;4955353;28;19982;-80
2022/03/02 13:56:50;;;;;;;;;;;11.60;57.40;;;;;;4983701;28;20820;-81
2022/03/02 13:59:16;;;;;;;;;;;11.50;60.60;;;;;;4952973;28;19937;-80
2022/03/02 14:01:42;;;;;;;;;;;11.30;56.30;;;;;;4967836;28;20375;-80
2022/03/02 14:04:11;;;;;;;;;;;11.60;56.60;;;;;;4946149;28;20356;-79
2022/03/02 14:06:42;;;;;;;;;;;11.70;54.20;;;;;;4952456;28;19972;-79
2022/03/02 14:09:12;;;;;;;;;;;11.60;56.50;;;;;;4944778;28;20444;-79
2022/03/02 14:11:40;;;;;;;;;;;11.80;58.60;;;;;;4964785;28;20664;-79
2022/03/02 14:14:10;;;;;;;;;;;11.60;57.60;;;;;;4927278;28;20009;-79
2022/03/02 14:16:37;;;;;;;;;;;11.40;56.40;;;;;;4951991;28;19932;-79
2022/03/02 14:19:02;;;;;;;;;;;11.50;58.10;;;;;;4950131;28;20341;-79
2022/03/02 14:21:29;;;;;;;;;;;11.60;57.50;;;;;;4970667;28;20370;-79
2022/03/02 14:23:54;;;;;;;;;;;11.60;57.70;;;;;;4953425;28;19974;-79
2022/03/02 14:26:20;;;;;;;;;;;11.60;56.50;;;;;;4969888;28;19966;-79
2022/03/02 14:28:47;;;;;;;;;;;11.70;59.20;;;;;;4966632;28;20195;-79
2022/03/02 14:31:13;;;;;;;;;;;11.50;58.00;;;;;;4967855;28;20098;-80
2022/03/02 14:33:39;;;;;;;;;;;11.60;55.60;;;;;;4948247;28;20318;-79
2022/03/02 14:36:05;;;;;;;;;;;11.60;55.40;;;;;;4948041;28;20381;-80